sensor_id;sensor_type;location;lat;lon;timestamp;P1;durP1;ratioP1;P2;durP2;ratioP2
70467;SDS011;57934;51.532;7.684;2022-12-10T00:01:45;82.10;;;38.65;;
70467;SDS011;57934;51.532;7.684;2022-12-10T00:04:12;72.63;;;35.67;;
70467;SDS011;57934;51.532;7.684;2022-12-10T00:06:38;70.65;;;36.25;;
70467;SDS011;57934;51.532;7.684;2022-12-10T00:09:05;73.90;;;36.55;;
70467;SDS011;57934;51.532;7.684;2022-12-10T00:11:33;71.07;;;36.60;;
70467;SDS011;57934;51.532;7.684;2022-12-10T00:13:59;70.63;;;35.50;;
70467;SDS011;57934;51.532;7.684;2022-12-10T00:16:26;73.80;;;35.05;;
70467;SDS011;57934;51.532;7.684;2022-12-10T00:18:53;73.55;;;37.22;;
70467;SDS011;57934;51.532;7.684;2022-12-10T00:21:21;71.47;;;35.85;;
70467;SDS011;57934;51.532;7.684;2022-12-10T00:23:48;72.30;;;36.70;;
70467;SDS011;57934;51.532;7.684;2022-12-10T00:26:19;75.53;;;37.70;;
70467;SDS011;57934;51.532;7.684;2022-12-10T00:28:50;71.07;;;34.38;;
70467;SDS011;57934;51.532;7.684;2022-12-10T00:31:19;74.90;;;37.88;;
70467;SDS011;57934;51.532;7.684;2022-12-10T00:33:46;72.43;;;35.47;;
70467;SDS011;57934;51.532;7.684;2022-12-10T00:38:44;71.85;;;36.63;;
70467;SDS011;57934;51.532;7.684;2022-12-10T00:41:11;66.05;;;35.45;;
70467;SDS011;57934;51.532;7.684;2022-12-10T00:43:37;73.53;;;37.10;;
70467;SDS011;57934;51.532;7.684;2022-12-10T00:46:04;67.07;;;35.72;;
70467;SDS011;57934;51.532;7.684;2022-12-10T00:48:30;75.72;;;36.72;;
70467;SDS011;57934;51.532;7.684;2022-12-10T00:53:25;67.38;;;33.70;;
70467;SDS011;57934;51.532;7.684;2022-12-10T00:55:53;68.45;;;36.28;;
70467;SDS011;57934;51.532;7.684;2022-12-10T00:58:19;66.32;;;33.90;;
70467;SDS011;57934;51.532;7.684;2022-12-10T01:00:46;73.75;;;36.70;;
70467;SDS011;57934;51.532;7.684;2022-12-10T01:03:12;68.20;;;35.22;;
70467;SDS011;57934;51.532;7.684;2022-12-10T01:05:39;71.22;;;35.53;;
70467;SDS011;57934;51.532;7.684;2022-12-10T01:08:05;65.80;;;32.97;;
70467;SDS011;57934;51.532;7.684;2022-12-10T01:10:31;73.15;;;35.05;;
70467;SDS011;57934;51.532;7.684;2022-12-10T01:12:57;66.00;;;34.25;;
70467;SDS011;57934;51.532;7.684;2022-12-10T01:15:23;68.88;;;35.65;;
70467;SDS011;57934;51.532;7.684;2022-12-10T01:17:49;68.40;;;35.10;;
70467;SDS011;57934;51.532;7.684;2022-12-10T01:20:15;71.55;;;35.65;;
70467;SDS011;57934;51.532;7.684;2022-12-10T01:22:41;72.18;;;36.13;;
70467;SDS011;57934;51.532;7.684;2022-12-10T01:25:07;71.57;;;36.40;;
70467;SDS011;57934;51.532;7.684;2022-12-10T01:27:33;70.18;;;34.75;;
70467;SDS011;57934;51.532;7.684;2022-12-10T01:29:59;70.55;;;35.45;;
70467;SDS011;57934;51.532;7.684;2022-12-10T01:32:25;66.95;;;34.22;;
70467;SDS011;57934;51.532;7.684;2022-12-10T01:34:51;71.35;;;34.70;;
70467;SDS011;57934;51.532;7.684;2022-12-10T01:37:17;67.45;;;35.17;;
70467;SDS011;57934;51.532;7.684;2022-12-10T01:39:43;67.43;;;33.95;;
70467;SDS011;57934;51.532;7.684;2022-12-10T01:42:10;70.00;;;34.63;;
70467;SDS011;57934;51.532;7.684;2022-12-10T01:47:07;69.25;;;34.20;;
70467;SDS011;57934;51.532;7.684;2022-12-10T01:49:35;71.32;;;34.92;;
70467;SDS011;57934;51.532;7.684;2022-12-10T01:52:04;67.32;;;34.85;;
70467;SDS011;57934;51.532;7.684;2022-12-10T01:54:34;67.25;;;33.78;;
70467;SDS011;57934;51.532;7.684;2022-12-10T01:57:03;68.57;;;35.03;;
70467;SDS011;57934;51.532;7.684;2022-12-10T01:59:37;66.80;;;33.80;;
70467;SDS011;57934;51.532;7.684;2022-12-10T02:02:08;68.28;;;34.55;;
70467;SDS011;57934;51.532;7.684;2022-12-10T02:11:41;69.72;;;32.90;;
70467;SDS011;57934;51.532;7.684;2022-12-10T02:14:19;69.57;;;32.95;;
70467;SDS011;57934;51.532;7.684;2022-12-10T02:16:57;67.20;;;34.47;;
70467;SDS011;57934;51.532;7.684;2022-12-10T02:19:38;63.13;;;34.45;;
70467;SDS011;57934;51.532;7.684;2022-12-10T02:22:07;71.70;;;34.53;;
70467;SDS011;57934;51.532;7.684;2022-12-10T02:24:35;66.70;;;34.15;;
70467;SDS011;57934;51.532;7.684;2022-12-10T02:29:38;63.95;;;34.15;;
70467;SDS011;57934;51.532;7.684;2022-12-10T02:32:09;58.63;;;32.83;;
70467;SDS011;57934;51.532;7.684;2022-12-10T02:34:42;62.47;;;32.53;;
70467;SDS011;57934;51.532;7.684;2022-12-10T02:37:18;60.75;;;31.45;;
70467;SDS011;57934;51.532;7.684;2022-12-10T02:40:08;59.10;;;32.38;;
70467;SDS011;57934;51.532;7.684;2022-12-10T02:42:46;52.60;;;28.80;;
70467;SDS011;57934;51.532;7.684;2022-12-10T02:45:15;48.55;;;24.88;;
70467;SDS011;57934;51.532;7.684;2022-12-10T02:47:42;47.22;;;25.52;;
70467;SDS011;57934;51.532;7.684;2022-12-10T02:50:10;47.50;;;24.52;;
70467;SDS011;57934;51.532;7.684;2022-12-10T02:52:38;47.05;;;26.13;;
70467;SDS011;57934;51.532;7.684;2022-12-10T02:55:04;57.97;;;29.50;;
70467;SDS011;57934;51.532;7.684;2022-12-10T03:05:36;61.03;;;32.90;;
70467;SDS011;57934;51.532;7.684;2022-12-10T03:08:27;56.20;;;28.85;;
70467;SDS011;57934;51.532;7.684;2022-12-10T03:10:59;42.35;;;22.38;;
70467;SDS011;57934;51.532;7.684;2022-12-10T03:16:06;29.63;;;17.75;;
70467;SDS011;57934;51.532;7.684;2022-12-10T03:18:34;27.35;;;16.67;;
70467;SDS011;57934;51.532;7.684;2022-12-10T03:21:01;34.33;;;18.67;;
70467;SDS011;57934;51.532;7.684;2022-12-10T03:23:30;26.58;;;16.15;;
70467;SDS011;57934;51.532;7.684;2022-12-10T03:26:00;26.95;;;16.08;;
70467;SDS011;57934;51.532;7.684;2022-12-10T03:28:30;27.15;;;15.77;;
70467;SDS011;57934;51.532;7.684;2022-12-10T03:31:00;28.38;;;16.02;;
70467;SDS011;57934;51.532;7.684;2022-12-10T03:33:28;30.33;;;17.77;;
70467;SDS011;57934;51.532;7.684;2022-12-10T03:35:55;29.58;;;17.67;;
70467;SDS011;57934;51.532;7.684;2022-12-10T03:38:22;29.58;;;16.88;;
70467;SDS011;57934;51.532;7.684;2022-12-10T03:40:48;24.85;;;14.45;;
70467;SDS011;57934;51.532;7.684;2022-12-10T03:43:14;24.80;;;14.73;;
70467;SDS011;57934;51.532;7.684;2022-12-10T03:45:40;25.75;;;16.15;;
70467;SDS011;57934;51.532;7.684;2022-12-10T03:48:06;29.63;;;17.15;;
70467;SDS011;57934;51.532;7.684;2022-12-10T03:50:32;30.23;;;15.30;;
70467;SDS011;57934;51.532;7.684;2022-12-10T03:52:58;24.73;;;15.07;;
70467;SDS011;57934;51.532;7.684;2022-12-10T03:55:24;26.50;;;15.30;;
70467;SDS011;57934;51.532;7.684;2022-12-10T03:57:50;29.20;;;16.60;;
70467;SDS011;57934;51.532;7.684;2022-12-10T04:00:16;28.40;;;16.75;;
70467;SDS011;57934;51.532;7.684;2022-12-10T04:02:42;27.58;;;15.85;;
70467;SDS011;57934;51.532;7.684;2022-12-10T04:05:08;28.60;;;17.27;;
70467;SDS011;57934;51.532;7.684;2022-12-10T04:07:34;28.95;;;16.98;;
70467;SDS011;57934;51.532;7.684;2022-12-10T04:10:01;25.77;;;16.30;;
70467;SDS011;57934;51.532;7.684;2022-12-10T04:12:28;29.00;;;16.63;;
70467;SDS011;57934;51.532;7.684;2022-12-10T04:14:54;28.52;;;16.83;;
70467;SDS011;57934;51.532;7.684;2022-12-10T04:17:38;27.60;;;16.27;;
70467;SDS011;57934;51.532;7.684;2022-12-10T04:20:04;25.13;;;15.27;;
70467;SDS011;57934;51.532;7.684;2022-12-10T04:22:51;28.92;;;16.55;;
70467;SDS011;57934;51.532;7.684;2022-12-10T04:25:35;27.80;;;16.63;;
70467;SDS011;57934;51.532;7.684;2022-12-10T04:28:21;31.58;;;17.00;;
70467;SDS011;57934;51.532;7.684;2022-12-10T04:30:47;27.65;;;16.25;;
70467;SDS011;57934;51.532;7.684;2022-12-10T04:33:13;31.63;;;17.92;;
70467;SDS011;57934;51.532;7.684;2022-12-10T04:35:39;29.17;;;17.38;;
70467;SDS011;57934;51.532;7.684;2022-12-10T04:38:05;27.15;;;16.13;;
70467;SDS011;57934;51.532;7.684;2022-12-10T04:40:31;24.48;;;13.63;;
70467;SDS011;57934;51.532;7.684;2022-12-10T04:42:57;25.27;;;15.00;;
70467;SDS011;57934;51.532;7.684;2022-12-10T04:45:23;25.05;;;15.48;;
70467;SDS011;57934;51.532;7.684;2022-12-10T04:47:49;31.05;;;17.90;;
70467;SDS011;57934;51.532;7.684;2022-12-10T04:50:15;28.27;;;17.25;;
70467;SDS011;57934;51.532;7.684;2022-12-10T04:52:41;31.95;;;18.00;;
70467;SDS011;57934;51.532;7.684;2022-12-10T04:55:07;27.00;;;15.18;;
70467;SDS011;57934;51.532;7.684;2022-12-10T04:57:33;28.42;;;17.08;;
70467;SDS011;57934;51.532;7.684;2022-12-10T05:00:00;27.33;;;15.68;;
70467;SDS011;57934;51.532;7.684;2022-12-10T05:02:26;26.88;;;16.55;;
70467;SDS011;57934;51.532;7.684;2022-12-10T05:04:52;25.15;;;16.08;;
70467;SDS011;57934;51.532;7.684;2022-12-10T05:07:18;25.05;;;15.32;;
70467;SDS011;57934;51.532;7.684;2022-12-10T05:09:44;25.23;;;15.40;;
70467;SDS011;57934;51.532;7.684;2022-12-10T05:12:10;28.33;;;15.85;;
70467;SDS011;57934;51.532;7.684;2022-12-10T05:14:35;26.13;;;16.05;;
70467;SDS011;57934;51.532;7.684;2022-12-10T05:17:02;26.98;;;16.75;;
70467;SDS011;57934;51.532;7.684;2022-12-10T05:19:28;24.55;;;15.30;;
70467;SDS011;57934;51.532;7.684;2022-12-10T05:21:53;26.45;;;15.43;;
70467;SDS011;57934;51.532;7.684;2022-12-10T05:24:38;27.10;;;15.98;;
70467;SDS011;57934;51.532;7.684;2022-12-10T05:27:04;25.27;;;15.40;;
70467;SDS011;57934;51.532;7.684;2022-12-10T05:29:31;27.58;;;15.35;;
70467;SDS011;57934;51.532;7.684;2022-12-10T05:31:58;25.85;;;15.85;;
70467;SDS011;57934;51.532;7.684;2022-12-10T05:34:24;27.15;;;15.90;;
70467;SDS011;57934;51.532;7.684;2022-12-10T05:36:53;25.88;;;14.90;;
70467;SDS011;57934;51.532;7.684;2022-12-10T05:39:19;26.63;;;15.68;;
70467;SDS011;57934;51.532;7.684;2022-12-10T05:41:45;24.42;;;15.63;;
70467;SDS011;57934;51.532;7.684;2022-12-10T05:44:11;27.20;;;15.45;;
70467;SDS011;57934;51.532;7.684;2022-12-10T05:46:37;26.60;;;15.88;;
70467;SDS011;57934;51.532;7.684;2022-12-10T05:49:03;24.23;;;13.70;;
70467;SDS011;57934;51.532;7.684;2022-12-10T05:51:32;24.85;;;14.50;;
70467;SDS011;57934;51.532;7.684;2022-12-10T05:54:00;18.90;;;12.60;;
70467;SDS011;57934;51.532;7.684;2022-12-10T05:56:29;23.13;;;14.50;;
70467;SDS011;57934;51.532;7.684;2022-12-10T05:58:57;20.67;;;13.13;;
70467;SDS011;57934;51.532;7.684;2022-12-10T06:01:27;22.13;;;13.63;;
70467;SDS011;57934;51.532;7.684;2022-12-10T06:03:56;25.10;;;14.43;;
70467;SDS011;57934;51.532;7.684;2022-12-10T06:06:24;21.48;;;13.20;;
70467;SDS011;57934;51.532;7.684;2022-12-10T06:08:54;22.10;;;12.48;;
70467;SDS011;57934;51.532;7.684;2022-12-10T06:11:21;20.80;;;13.40;;
70467;SDS011;57934;51.532;7.684;2022-12-10T06:13:47;21.02;;;12.82;;
70467;SDS011;57934;51.532;7.684;2022-12-10T06:16:14;23.40;;;13.48;;
70467;SDS011;57934;51.532;7.684;2022-12-10T06:18:40;22.38;;;12.80;;
70467;SDS011;57934;51.532;7.684;2022-12-10T06:21:07;20.15;;;13.00;;
70467;SDS011;57934;51.532;7.684;2022-12-10T06:23:35;23.67;;;13.90;;
70467;SDS011;57934;51.532;7.684;2022-12-10T06:26:03;22.23;;;13.13;;
70467;SDS011;57934;51.532;7.684;2022-12-10T06:28:35;27.38;;;15.23;;
70467;SDS011;57934;51.532;7.684;2022-12-10T06:31:02;24.42;;;14.82;;
70467;SDS011;57934;51.532;7.684;2022-12-10T06:33:28;23.92;;;14.57;;
70467;SDS011;57934;51.532;7.684;2022-12-10T06:35:54;25.63;;;14.90;;
70467;SDS011;57934;51.532;7.684;2022-12-10T06:38:20;23.75;;;14.30;;
70467;SDS011;57934;51.532;7.684;2022-12-10T06:40:46;21.98;;;14.02;;
70467;SDS011;57934;51.532;7.684;2022-12-10T06:43:12;28.80;;;16.58;;
70467;SDS011;57934;51.532;7.684;2022-12-10T06:45:39;27.95;;;16.30;;
70467;SDS011;57934;51.532;7.684;2022-12-10T06:48:05;22.90;;;13.77;;
70467;SDS011;57934;51.532;7.684;2022-12-10T06:50:31;22.30;;;12.77;;
70467;SDS011;57934;51.532;7.684;2022-12-10T06:52:57;21.08;;;12.32;;
70467;SDS011;57934;51.532;7.684;2022-12-10T06:55:23;21.75;;;12.93;;
70467;SDS011;57934;51.532;7.684;2022-12-10T06:57:50;21.42;;;13.02;;
70467;SDS011;57934;51.532;7.684;2022-12-10T07:00:17;22.63;;;13.32;;
70467;SDS011;57934;51.532;7.684;2022-12-10T07:02:44;24.58;;;14.57;;
70467;SDS011;57934;51.532;7.684;2022-12-10T07:05:10;23.13;;;14.20;;
70467;SDS011;57934;51.532;7.684;2022-12-10T07:07:36;25.75;;;14.05;;
70467;SDS011;57934;51.532;7.684;2022-12-10T07:10:03;24.75;;;14.10;;
70467;SDS011;57934;51.532;7.684;2022-12-10T07:12:30;21.25;;;12.98;;
70467;SDS011;57934;51.532;7.684;2022-12-10T07:14:56;22.10;;;12.32;;
70467;SDS011;57934;51.532;7.684;2022-12-10T07:17:21;22.30;;;13.68;;
70467;SDS011;57934;51.532;7.684;2022-12-10T07:19:47;22.83;;;13.38;;
70467;SDS011;57934;51.532;7.684;2022-12-10T07:22:13;22.25;;;13.27;;
70467;SDS011;57934;51.532;7.684;2022-12-10T07:24:40;24.95;;;13.98;;
70467;SDS011;57934;51.532;7.684;2022-12-10T07:27:06;24.88;;;13.90;;
70467;SDS011;57934;51.532;7.684;2022-12-10T07:29:33;27.20;;;15.15;;
70467;SDS011;57934;51.532;7.684;2022-12-10T07:31:59;23.80;;;15.80;;
70467;SDS011;57934;51.532;7.684;2022-12-10T07:34:25;23.33;;;15.05;;
70467;SDS011;57934;51.532;7.684;2022-12-10T07:36:51;25.55;;;15.57;;
70467;SDS011;57934;51.532;7.684;2022-12-10T07:39:17;28.08;;;16.10;;
70467;SDS011;57934;51.532;7.684;2022-12-10T07:41:52;25.50;;;15.40;;
70467;SDS011;57934;51.532;7.684;2022-12-10T07:44:19;25.13;;;14.77;;
70467;SDS011;57934;51.532;7.684;2022-12-10T07:46:47;27.90;;;16.05;;
70467;SDS011;57934;51.532;7.684;2022-12-10T07:49:14;27.35;;;17.45;;
70467;SDS011;57934;51.532;7.684;2022-12-10T07:51:43;32.75;;;19.00;;
70467;SDS011;57934;51.532;7.684;2022-12-10T07:54:10;29.88;;;19.10;;
70467;SDS011;57934;51.532;7.684;2022-12-10T07:56:36;26.65;;;15.45;;
70467;SDS011;57934;51.532;7.684;2022-12-10T07:59:02;30.50;;;18.17;;
70467;SDS011;57934;51.532;7.684;2022-12-10T08:01:28;26.77;;;16.70;;
70467;SDS011;57934;51.532;7.684;2022-12-10T08:03:54;24.17;;;15.20;;
70467;SDS011;57934;51.532;7.684;2022-12-10T08:06:25;25.05;;;15.68;;
70467;SDS011;57934;51.532;7.684;2022-12-10T08:08:52;30.17;;;16.60;;
70467;SDS011;57934;51.532;7.684;2022-12-10T08:11:19;24.98;;;15.85;;
70467;SDS011;57934;51.532;7.684;2022-12-10T08:13:46;25.80;;;16.92;;
70467;SDS011;57934;51.532;7.684;2022-12-10T08:16:17;29.17;;;17.95;;
70467;SDS011;57934;51.532;7.684;2022-12-10T08:18:45;26.17;;;16.15;;
70467;SDS011;57934;51.532;7.684;2022-12-10T08:21:16;27.83;;;15.95;;
70467;SDS011;57934;51.532;7.684;2022-12-10T08:23:44;33.78;;;16.98;;
70467;SDS011;57934;51.532;7.684;2022-12-10T08:26:18;28.10;;;15.68;;
70467;SDS011;57934;51.532;7.684;2022-12-10T08:28:46;25.40;;;15.50;;
70467;SDS011;57934;51.532;7.684;2022-12-10T08:31:17;23.75;;;15.13;;
70467;SDS011;57934;51.532;7.684;2022-12-10T08:33:44;28.67;;;16.67;;
70467;SDS011;57934;51.532;7.684;2022-12-10T08:36:11;25.00;;;15.63;;
70467;SDS011;57934;51.532;7.684;2022-12-10T08:38:38;23.83;;;14.38;;
70467;SDS011;57934;51.532;7.684;2022-12-10T08:41:06;26.30;;;14.00;;
70467;SDS011;57934;51.532;7.684;2022-12-10T08:43:33;27.08;;;14.60;;
70467;SDS011;57934;51.532;7.684;2022-12-10T08:45:59;26.38;;;15.40;;
70467;SDS011;57934;51.532;7.684;2022-12-10T08:48:25;25.85;;;15.43;;
70467;SDS011;57934;51.532;7.684;2022-12-10T08:50:52;27.52;;;16.35;;
70467;SDS011;57934;51.532;7.684;2022-12-10T08:53:18;31.63;;;16.45;;
70467;SDS011;57934;51.532;7.684;2022-12-10T08:55:44;29.27;;;16.85;;
70467;SDS011;57934;51.532;7.684;2022-12-10T08:58:10;26.70;;;16.42;;
70467;SDS011;57934;51.532;7.684;2022-12-10T09:00:36;25.48;;;15.90;;
70467;SDS011;57934;51.532;7.684;2022-12-10T09:03:02;22.95;;;13.95;;
70467;SDS011;57934;51.532;7.684;2022-12-10T09:05:29;26.05;;;14.70;;
70467;SDS011;57934;51.532;7.684;2022-12-10T09:07:55;19.67;;;13.23;;
70467;SDS011;57934;51.532;7.684;2022-12-10T09:10:21;23.25;;;13.50;;
70467;SDS011;57934;51.532;7.684;2022-12-10T09:12:47;18.55;;;12.55;;
70467;SDS011;57934;51.532;7.684;2022-12-10T09:15:13;19.55;;;12.80;;
70467;SDS011;57934;51.532;7.684;2022-12-10T09:17:39;20.02;;;13.48;;
70467;SDS011;57934;51.532;7.684;2022-12-10T09:20:05;22.40;;;12.88;;
70467;SDS011;57934;51.532;7.684;2022-12-10T09:22:32;20.17;;;13.00;;
70467;SDS011;57934;51.532;7.684;2022-12-10T09:25:05;19.67;;;12.70;;
70467;SDS011;57934;51.532;7.684;2022-12-10T09:27:33;19.20;;;12.30;;
70467;SDS011;57934;51.532;7.684;2022-12-10T09:29:59;19.63;;;13.35;;
70467;SDS011;57934;51.532;7.684;2022-12-10T09:32:25;22.55;;;13.27;;
70467;SDS011;57934;51.532;7.684;2022-12-10T09:34:51;24.33;;;14.15;;
70467;SDS011;57934;51.532;7.684;2022-12-10T09:37:17;26.15;;;14.98;;
70467;SDS011;57934;51.532;7.684;2022-12-10T09:39:44;22.77;;;14.77;;
70467;SDS011;57934;51.532;7.684;2022-12-10T09:52:59;27.77;;;14.55;;
70467;SDS011;57934;51.532;7.684;2022-12-10T09:55:37;22.27;;;14.32;;
70467;SDS011;57934;51.532;7.684;2022-12-10T09:58:08;28.08;;;15.65;;
70467;SDS011;57934;51.532;7.684;2022-12-10T10:00:44;24.23;;;15.88;;
70467;SDS011;57934;51.532;7.684;2022-12-10T10:03:13;25.38;;;16.20;;
70467;SDS011;57934;51.532;7.684;2022-12-10T10:05:48;25.98;;;15.57;;
70467;SDS011;57934;51.532;7.684;2022-12-10T10:08:22;25.83;;;15.43;;
70467;SDS011;57934;51.532;7.684;2022-12-10T10:10:49;23.25;;;14.90;;
70467;SDS011;57934;51.532;7.684;2022-12-10T10:13:34;24.27;;;14.82;;
70467;SDS011;57934;51.532;7.684;2022-12-10T10:19:03;25.20;;;15.52;;
70467;SDS011;57934;51.532;7.684;2022-12-10T10:21:36;28.05;;;15.13;;
70467;SDS011;57934;51.532;7.684;2022-12-10T10:24:05;27.55;;;16.08;;
70467;SDS011;57934;51.532;7.684;2022-12-10T10:26:37;27.02;;;15.57;;
70467;SDS011;57934;51.532;7.684;2022-12-10T10:29:04;26.35;;;14.57;;
70467;SDS011;57934;51.532;7.684;2022-12-10T10:31:33;27.25;;;15.50;;
70467;SDS011;57934;51.532;7.684;2022-12-10T10:34:04;23.48;;;14.48;;
70467;SDS011;57934;51.532;7.684;2022-12-10T10:36:38;27.48;;;16.80;;
70467;SDS011;57934;51.532;7.684;2022-12-10T10:39:09;28.50;;;16.52;;
70467;SDS011;57934;51.532;7.684;2022-12-10T10:41:44;28.17;;;15.57;;
70467;SDS011;57934;51.532;7.684;2022-12-10T10:44:21;23.60;;;15.27;;
70467;SDS011;57934;51.532;7.684;2022-12-10T10:46:50;26.77;;;16.05;;
70467;SDS011;57934;51.532;7.684;2022-12-10T10:51:47;28.83;;;15.68;;
70467;SDS011;57934;51.532;7.684;2022-12-10T10:57:25;26.17;;;15.15;;
70467;SDS011;57934;51.532;7.684;2022-12-10T11:00:18;24.65;;;15.00;;
70467;SDS011;57934;51.532;7.684;2022-12-10T11:02:47;27.00;;;15.63;;
70467;SDS011;57934;51.532;7.684;2022-12-10T11:05:29;25.80;;;15.13;;
70467;SDS011;57934;51.532;7.684;2022-12-10T11:08:01;27.38;;;15.35;;
70467;SDS011;57934;51.532;7.684;2022-12-10T11:10:33;26.25;;;16.80;;
70467;SDS011;57934;51.532;7.684;2022-12-10T11:15:34;26.80;;;16.63;;
70467;SDS011;57934;51.532;7.684;2022-12-10T11:18:01;26.52;;;15.02;;
70467;SDS011;57934;51.532;7.684;2022-12-10T11:20:31;24.15;;;15.80;;
70467;SDS011;57934;51.532;7.684;2022-12-10T11:23:00;25.85;;;16.40;;
70467;SDS011;57934;51.532;7.684;2022-12-10T11:31:21;28.67;;;16.70;;
70467;SDS011;57934;51.532;7.684;2022-12-10T11:34:01;28.92;;;16.33;;
70467;SDS011;57934;51.532;7.684;2022-12-10T11:39:17;26.50;;;17.02;;
70467;SDS011;57934;51.532;7.684;2022-12-10T11:41:54;29.08;;;17.30;;
70467;SDS011;57934;51.532;7.684;2022-12-10T11:44:49;26.52;;;16.65;;
70467;SDS011;57934;51.532;7.684;2022-12-10T11:50:12;27.77;;;16.67;;
70467;SDS011;57934;51.532;7.684;2022-12-10T11:55:32;33.17;;;18.80;;
70467;SDS011;57934;51.532;7.684;2022-12-10T12:09:27;29.08;;;17.42;;
70467;SDS011;57934;51.532;7.684;2022-12-10T12:14:48;29.58;;;17.15;;
70467;SDS011;57934;51.532;7.684;2022-12-10T12:17:21;28.17;;;16.33;;
70467;SDS011;57934;51.532;7.684;2022-12-10T12:19:56;29.33;;;17.27;;
70467;SDS011;57934;51.532;7.684;2022-12-10T12:22:30;32.45;;;18.13;;
70467;SDS011;57934;51.532;7.684;2022-12-10T12:25:00;28.17;;;17.98;;
70467;SDS011;57934;51.532;7.684;2022-12-10T12:27:33;31.67;;;17.83;;
70467;SDS011;57934;51.532;7.684;2022-12-10T12:30:05;27.58;;;17.17;;
70467;SDS011;57934;51.532;7.684;2022-12-10T12:37:55;29.45;;;16.67;;
70467;SDS011;57934;51.532;7.684;2022-12-10T12:40:30;28.25;;;16.80;;
70467;SDS011;57934;51.532;7.684;2022-12-10T12:43:40;27.35;;;16.30;;
70467;SDS011;57934;51.532;7.684;2022-12-10T12:46:09;29.40;;;17.08;;
70467;SDS011;57934;51.532;7.684;2022-12-10T12:51:14;29.85;;;15.50;;
70467;SDS011;57934;51.532;7.684;2022-12-10T12:53:46;29.83;;;15.75;;
70467;SDS011;57934;51.532;7.684;2022-12-10T12:56:24;28.13;;;16.77;;
70467;SDS011;57934;51.532;7.684;2022-12-10T13:01:40;28.20;;;15.40;;
70467;SDS011;57934;51.532;7.684;2022-12-10T13:04:13;29.38;;;16.40;;
70467;SDS011;57934;51.532;7.684;2022-12-10T13:06:40;30.58;;;16.95;;
70467;SDS011;57934;51.532;7.684;2022-12-10T13:11:40;30.73;;;17.52;;
70467;SDS011;57934;51.532;7.684;2022-12-10T13:21:56;31.08;;;16.45;;
70467;SDS011;57934;51.532;7.684;2022-12-10T13:27:43;25.33;;;16.05;;
70467;SDS011;57934;51.532;7.684;2022-12-10T13:37:36;32.30;;;17.55;;
70467;SDS011;57934;51.532;7.684;2022-12-10T13:42:36;31.65;;;17.08;;
70467;SDS011;57934;51.532;7.684;2022-12-10T13:58:50;31.23;;;18.30;;
70467;SDS011;57934;51.532;7.684;2022-12-10T14:01:32;29.58;;;16.88;;
70467;SDS011;57934;51.532;7.684;2022-12-10T14:04:16;33.53;;;19.10;;
70467;SDS011;57934;51.532;7.684;2022-12-10T14:07:03;29.13;;;17.00;;
70467;SDS011;57934;51.532;7.684;2022-12-10T14:09:34;33.72;;;18.80;;
70467;SDS011;57934;51.532;7.684;2022-12-10T14:14:40;28.67;;;16.55;;
70467;SDS011;57934;51.532;7.684;2022-12-10T14:17:14;33.83;;;19.85;;
70467;SDS011;57934;51.532;7.684;2022-12-10T14:19:44;31.42;;;17.40;;
70467;SDS011;57934;51.532;7.684;2022-12-10T14:22:17;30.27;;;15.02;;
70467;SDS011;57934;51.532;7.684;2022-12-10T14:24:45;27.13;;;16.38;;
70467;SDS011;57934;51.532;7.684;2022-12-10T14:27:17;25.73;;;14.82;;
70467;SDS011;57934;51.532;7.684;2022-12-10T14:29:49;30.20;;;16.58;;
70467;SDS011;57934;51.532;7.684;2022-12-10T14:32:23;32.83;;;17.38;;
70467;SDS011;57934;51.532;7.684;2022-12-10T14:34:55;31.55;;;16.90;;
70467;SDS011;57934;51.532;7.684;2022-12-10T14:37:25;33.40;;;18.40;;
70467;SDS011;57934;51.532;7.684;2022-12-10T14:39:56;34.80;;;19.08;;
70467;SDS011;57934;51.532;7.684;2022-12-10T14:42:22;35.53;;;18.92;;
70467;SDS011;57934;51.532;7.684;2022-12-10T14:44:59;34.22;;;20.15;;
70467;SDS011;57934;51.532;7.684;2022-12-10T14:47:33;34.08;;;19.17;;
70467;SDS011;57934;51.532;7.684;2022-12-10T14:50:03;37.67;;;20.65;;
70467;SDS011;57934;51.532;7.684;2022-12-10T14:52:32;34.80;;;18.70;;
70467;SDS011;57934;51.532;7.684;2022-12-10T14:55:01;35.53;;;19.92;;
70467;SDS011;57934;51.532;7.684;2022-12-10T14:57:28;40.45;;;18.75;;
70467;SDS011;57934;51.532;7.684;2022-12-10T15:00:02;38.25;;;19.63;;
70467;SDS011;57934;51.532;7.684;2022-12-10T15:02:33;36.53;;;20.92;;
70467;SDS011;57934;51.532;7.684;2022-12-10T15:05:02;38.58;;;20.40;;
70467;SDS011;57934;51.532;7.684;2022-12-10T15:07:35;34.90;;;20.23;;
70467;SDS011;57934;51.532;7.684;2022-12-10T15:10:07;35.08;;;18.30;;
70467;SDS011;57934;51.532;7.684;2022-12-10T15:12:43;35.78;;;19.70;;
70467;SDS011;57934;51.532;7.684;2022-12-10T15:15:14;33.17;;;19.98;;
70467;SDS011;57934;51.532;7.684;2022-12-10T15:27:13;36.67;;;20.52;;
70467;SDS011;57934;51.532;7.684;2022-12-10T15:29:42;39.38;;;19.90;;
70467;SDS011;57934;51.532;7.684;2022-12-10T15:32:22;33.97;;;19.85;;
70467;SDS011;57934;51.532;7.684;2022-12-10T15:34:53;36.08;;;20.48;;
70467;SDS011;57934;51.532;7.684;2022-12-10T15:37:31;34.90;;;21.90;;
70467;SDS011;57934;51.532;7.684;2022-12-10T15:39:59;39.63;;;21.58;;
70467;SDS011;57934;51.532;7.684;2022-12-10T15:42:30;38.90;;;20.50;;
70467;SDS011;57934;51.532;7.684;2022-12-10T15:45:01;38.33;;;20.45;;
70467;SDS011;57934;51.532;7.684;2022-12-10T15:47:48;40.03;;;20.67;;
70467;SDS011;57934;51.532;7.684;2022-12-10T15:50:15;38.22;;;21.58;;
70467;SDS011;57934;51.532;7.684;2022-12-10T15:52:41;39.88;;;22.00;;
70467;SDS011;57934;51.532;7.684;2022-12-10T15:55:08;39.80;;;22.05;;
70467;SDS011;57934;51.532;7.684;2022-12-10T15:57:37;38.33;;;21.73;;
70467;SDS011;57934;51.532;7.684;2022-12-10T16:00:22;41.67;;;22.60;;
70467;SDS011;57934;51.532;7.684;2022-12-10T16:02:53;42.38;;;22.33;;
70467;SDS011;57934;51.532;7.684;2022-12-10T16:05:23;46.85;;;23.38;;
70467;SDS011;57934;51.532;7.684;2022-12-10T16:07:52;50.42;;;24.70;;
70467;SDS011;57934;51.532;7.684;2022-12-10T16:10:20;49.40;;;24.45;;
70467;SDS011;57934;51.532;7.684;2022-12-10T16:12:49;39.28;;;21.75;;
70467;SDS011;57934;51.532;7.684;2022-12-10T16:15:24;41.92;;;22.48;;
70467;SDS011;57934;51.532;7.684;2022-12-10T16:17:53;47.92;;;23.42;;
70467;SDS011;57934;51.532;7.684;2022-12-10T16:20:23;48.10;;;24.77;;
70467;SDS011;57934;51.532;7.684;2022-12-10T16:22:56;47.00;;;24.73;;
70467;SDS011;57934;51.532;7.684;2022-12-10T16:25:24;45.30;;;23.52;;
70467;SDS011;57934;51.532;7.684;2022-12-10T16:27:53;39.88;;;21.52;;
70467;SDS011;57934;51.532;7.684;2022-12-10T16:30:20;39.53;;;22.02;;
70467;SDS011;57934;51.532;7.684;2022-12-10T16:32:49;37.63;;;21.67;;
70467;SDS011;57934;51.532;7.684;2022-12-10T16:35:16;42.20;;;22.50;;
70467;SDS011;57934;51.532;7.684;2022-12-10T16:37:43;43.03;;;22.00;;
70467;SDS011;57934;51.532;7.684;2022-12-10T16:40:14;35.55;;;20.38;;
70467;SDS011;57934;51.532;7.684;2022-12-10T16:42:41;36.15;;;21.48;;
70467;SDS011;57934;51.532;7.684;2022-12-10T16:45:18;42.35;;;21.55;;
70467;SDS011;57934;51.532;7.684;2022-12-10T16:47:52;38.20;;;20.98;;
70467;SDS011;57934;51.532;7.684;2022-12-10T16:50:20;38.55;;;20.55;;
70467;SDS011;57934;51.532;7.684;2022-12-10T16:52:46;34.10;;;19.55;;